sensor_id;sensor_type;location;lat;lon;timestamp;P1;durP1;ratioP1;P2;durP2;ratioP2
15112;SDS011;7657;50.140;7.076;2023-05-23T00:02:26;27.52;;;22.35;;
15112;SDS011;7657;50.140;7.076;2023-05-23T00:04:54;24.52;;;20.92;;
15112;SDS011;7657;50.140;7.076;2023-05-23T00:07:22;24.52;;;20.63;;
15112;SDS011;7657;50.140;7.076;2023-05-23T00:09:50;24.20;;;20.45;;
15112;SDS011;7657;50.140;7.076;2023-05-23T00:12:17;23.77;;;21.20;;
15112;SDS011;7657;50.140;7.076;2023-05-23T00:14:44;21.70;;;19.40;;
15112;SDS011;7657;50.140;7.076;2023-05-23T00:17:11;22.85;;;19.23;;
15112;SDS011;7657;50.140;7.076;2023-05-23T00:19:39;22.92;;;19.13;;
15112;SDS011;7657;50.140;7.076;2023-05-23T00:22:09;23.67;;;19.50;;
15112;SDS011;7657;50.140;7.076;2023-05-23T00:24:37;26.92;;;19.88;;
15112;SDS011;7657;50.140;7.076;2023-05-23T00:27:04;25.40;;;21.30;;
15112;SDS011;7657;50.140;7.076;2023-05-23T00:29:31;24.70;;;21.98;;
15112;SDS011;7657;50.140;7.076;2023-05-23T00:31:58;30.67;;;22.73;;
15112;SDS011;7657;50.140;7.076;2023-05-23T00:34:25;25.83;;;21.42;;
15112;SDS011;7657;50.140;7.076;2023-05-23T00:36:53;28.00;;;21.85;;
15112;SDS011;7657;50.140;7.076;2023-05-23T00:39:20;26.00;;;21.40;;
15112;SDS011;7657;50.140;7.076;2023-05-23T00:41:47;26.33;;;22.27;;
15112;SDS011;7657;50.140;7.076;2023-05-23T00:44:15;24.35;;;21.70;;
15112;SDS011;7657;50.140;7.076;2023-05-23T00:46:44;25.55;;;21.60;;
15112;SDS011;7657;50.140;7.076;2023-05-23T00:49:12;27.90;;;21.38;;
15112;SDS011;7657;50.140;7.076;2023-05-23T00:51:40;25.90;;;21.33;;
15112;SDS011;7657;50.140;7.076;2023-05-23T00:54:08;22.63;;;19.05;;
15112;SDS011;7657;50.140;7.076;2023-05-23T00:56:35;21.77;;;18.52;;
15112;SDS011;7657;50.140;7.076;2023-05-23T00:59:04;20.60;;;17.20;;
15112;SDS011;7657;50.140;7.076;2023-05-23T01:01:31;19.88;;;17.67;;
15112;SDS011;7657;50.140;7.076;2023-05-23T01:04:00;21.75;;;18.23;;
15112;SDS011;7657;50.140;7.076;2023-05-23T01:06:28;21.50;;;17.98;;
15112;SDS011;7657;50.140;7.076;2023-05-23T01:08:57;21.88;;;17.63;;
15112;SDS011;7657;50.140;7.076;2023-05-23T01:11:28;23.90;;;18.05;;
15112;SDS011;7657;50.140;7.076;2023-05-23T01:14:03;22.88;;;17.60;;
15112;SDS011;7657;50.140;7.076;2023-05-23T01:16:38;20.00;;;16.98;;
15112;SDS011;7657;50.140;7.076;2023-05-23T01:19:16;18.83;;;16.83;;
15112;SDS011;7657;50.140;7.076;2023-05-23T01:22:02;23.83;;;16.77;;
15112;SDS011;7657;50.140;7.076;2023-05-23T01:24:38;19.83;;;17.40;;
15112;SDS011;7657;50.140;7.076;2023-05-23T01:27:16;21.58;;;16.88;;
15112;SDS011;7657;50.140;7.076;2023-05-23T01:29:56;20.98;;;17.75;;
15112;SDS011;7657;50.140;7.076;2023-05-23T01:32:26;22.08;;;18.42;;
15112;SDS011;7657;50.140;7.076;2023-05-23T01:34:54;23.83;;;18.30;;
15112;SDS011;7657;50.140;7.076;2023-05-23T01:37:22;23.05;;;19.60;;
15112;SDS011;7657;50.140;7.076;2023-05-23T01:39:49;26.58;;;20.27;;
15112;SDS011;7657;50.140;7.076;2023-05-23T01:42:16;26.02;;;19.42;;
15112;SDS011;7657;50.140;7.076;2023-05-23T01:44:44;23.10;;;18.40;;
15112;SDS011;7657;50.140;7.076;2023-05-23T01:47:12;23.48;;;19.08;;
15112;SDS011;7657;50.140;7.076;2023-05-23T01:49:41;23.83;;;18.58;;
15112;SDS011;7657;50.140;7.076;2023-05-23T01:52:09;22.27;;;18.55;;
15112;SDS011;7657;50.140;7.076;2023-05-23T01:54:37;20.50;;;15.90;;
15112;SDS011;7657;50.140;7.076;2023-05-23T01:57:06;20.02;;;15.98;;
15112;SDS011;7657;50.140;7.076;2023-05-23T01:59:33;19.20;;;14.23;;
15112;SDS011;7657;50.140;7.076;2023-05-23T02:02:01;16.95;;;14.18;;
15112;SDS011;7657;50.140;7.076;2023-05-23T02:04:29;17.67;;;14.25;;
15112;SDS011;7657;50.140;7.076;2023-05-23T02:06:56;15.15;;;12.52;;
15112;SDS011;7657;50.140;7.076;2023-05-23T02:09:23;16.15;;;13.10;;
15112;SDS011;7657;50.140;7.076;2023-05-23T02:11:50;14.85;;;12.18;;
15112;SDS011;7657;50.140;7.076;2023-05-23T02:14:17;15.27;;;12.23;;
15112;SDS011;7657;50.140;7.076;2023-05-23T02:16:43;16.95;;;12.85;;
15112;SDS011;7657;50.140;7.076;2023-05-23T02:19:10;12.88;;;10.90;;
15112;SDS011;7657;50.140;7.076;2023-05-23T02:21:38;14.32;;;11.57;;
15112;SDS011;7657;50.140;7.076;2023-05-23T02:24:05;13.38;;;10.13;;
15112;SDS011;7657;50.140;7.076;2023-05-23T02:26:32;12.77;;;10.52;;
15112;SDS011;7657;50.140;7.076;2023-05-23T02:28:59;14.60;;;11.55;;
15112;SDS011;7657;50.140;7.076;2023-05-23T02:31:26;14.02;;;11.82;;
15112;SDS011;7657;50.140;7.076;2023-05-23T02:33:53;14.80;;;11.35;;
15112;SDS011;7657;50.140;7.076;2023-05-23T02:36:20;15.25;;;11.02;;
15112;SDS011;7657;50.140;7.076;2023-05-23T02:38:48;12.95;;;11.52;;
15112;SDS011;7657;50.140;7.076;2023-05-23T02:41:15;14.80;;;10.98;;
15112;SDS011;7657;50.140;7.076;2023-05-23T02:43:43;13.95;;;11.07;;
15112;SDS011;7657;50.140;7.076;2023-05-23T02:46:11;15.00;;;12.23;;
15112;SDS011;7657;50.140;7.076;2023-05-23T02:48:38;14.23;;;11.27;;
15112;SDS011;7657;50.140;7.076;2023-05-23T02:51:05;14.32;;;11.60;;
15112;SDS011;7657;50.140;7.076;2023-05-23T02:53:32;14.10;;;11.48;;
15112;SDS011;7657;50.140;7.076;2023-05-23T02:56:00;15.82;;;11.75;;
15112;SDS011;7657;50.140;7.076;2023-05-23T02:58:27;15.60;;;11.55;;
15112;SDS011;7657;50.140;7.076;2023-05-23T03:00:54;13.95;;;11.65;;
15112;SDS011;7657;50.140;7.076;2023-05-23T03:03:21;13.90;;;11.15;;
15112;SDS011;7657;50.140;7.076;2023-05-23T03:05:48;12.85;;;11.30;;
15112;SDS011;7657;50.140;7.076;2023-05-23T03:08:15;15.88;;;10.95;;
15112;SDS011;7657;50.140;7.076;2023-05-23T03:10:42;13.63;;;11.20;;
15112;SDS011;7657;50.140;7.076;2023-05-23T03:13:10;14.80;;;11.32;;
15112;SDS011;7657;50.140;7.076;2023-05-23T03:15:37;14.20;;;11.43;;
15112;SDS011;7657;50.140;7.076;2023-05-23T03:18:04;12.65;;;10.73;;
15112;SDS011;7657;50.140;7.076;2023-05-23T03:20:31;18.50;;;11.60;;
15112;SDS011;7657;50.140;7.076;2023-05-23T03:22:58;13.60;;;10.85;;
15112;SDS011;7657;50.140;7.076;2023-05-23T03:25:25;13.10;;;10.18;;
15112;SDS011;7657;50.140;7.076;2023-05-23T03:27:52;14.52;;;11.45;;
15112;SDS011;7657;50.140;7.076;2023-05-23T03:30:20;14.57;;;11.60;;
15112;SDS011;7657;50.140;7.076;2023-05-23T03:32:47;16.70;;;13.23;;
15112;SDS011;7657;50.140;7.076;2023-05-23T03:35:14;16.55;;;13.10;;
15112;SDS011;7657;50.140;7.076;2023-05-23T03:37:41;16.33;;;12.25;;
15112;SDS011;7657;50.140;7.076;2023-05-23T03:40:08;18.60;;;12.40;;
15112;SDS011;7657;50.140;7.076;2023-05-23T03:42:35;12.70;;;10.85;;
15112;SDS011;7657;50.140;7.076;2023-05-23T03:45:04;14.13;;;10.80;;
15112;SDS011;7657;50.140;7.076;2023-05-23T03:47:33;13.63;;;10.77;;
15112;SDS011;7657;50.140;7.076;2023-05-23T03:50:00;15.05;;;10.90;;
15112;SDS011;7657;50.140;7.076;2023-05-23T03:52:28;14.15;;;11.43;;
15112;SDS011;7657;50.140;7.076;2023-05-23T03:54:54;14.57;;;11.35;;
15112;SDS011;7657;50.140;7.076;2023-05-23T03:57:21;13.80;;;11.50;;
15112;SDS011;7657;50.140;7.076;2023-05-23T03:59:48;12.82;;;11.45;;
15112;SDS011;7657;50.140;7.076;2023-05-23T04:02:16;14.50;;;11.52;;
15112;SDS011;7657;50.140;7.076;2023-05-23T04:04:44;15.07;;;11.70;;
15112;SDS011;7657;50.140;7.076;2023-05-23T04:07:11;15.23;;;12.52;;
15112;SDS011;7657;50.140;7.076;2023-05-23T04:09:39;15.60;;;12.52;;
15112;SDS011;7657;50.140;7.076;2023-05-23T04:12:06;14.25;;;12.52;;
15112;SDS011;7657;50.140;7.076;2023-05-23T04:14:34;13.50;;;11.05;;
15112;SDS011;7657;50.140;7.076;2023-05-23T04:17:01;12.38;;;10.70;;
15112;SDS011;7657;50.140;7.076;2023-05-23T04:19:28;11.63;;;10.38;;
15112;SDS011;7657;50.140;7.076;2023-05-23T04:21:56;12.57;;;9.88;;
15112;SDS011;7657;50.140;7.076;2023-05-23T04:24:23;14.43;;;10.02;;
15112;SDS011;7657;50.140;7.076;2023-05-23T04:26:50;15.70;;;10.73;;
15112;SDS011;7657;50.140;7.076;2023-05-23T04:29:20;11.02;;;9.80;;
15112;SDS011;7657;50.140;7.076;2023-05-23T04:31:48;12.15;;;9.77;;
15112;SDS011;7657;50.140;7.076;2023-05-23T04:34:15;12.52;;;9.35;;
15112;SDS011;7657;50.140;7.076;2023-05-23T04:36:42;12.70;;;10.27;;
15112;SDS011;7657;50.140;7.076;2023-05-23T04:39:11;12.20;;;9.70;;
15112;SDS011;7657;50.140;7.076;2023-05-23T04:41:38;11.57;;;9.93;;
15112;SDS011;7657;50.140;7.076;2023-05-23T04:44:05;10.32;;;8.55;;
15112;SDS011;7657;50.140;7.076;2023-05-23T04:46:34;10.13;;;8.63;;
15112;SDS011;7657;50.140;7.076;2023-05-23T04:49:01;8.45;;;7.55;;
15112;SDS011;7657;50.140;7.076;2023-05-23T04:51:28;10.25;;;7.85;;
15112;SDS011;7657;50.140;7.076;2023-05-23T04:53:54;8.43;;;7.10;;
15112;SDS011;7657;50.140;7.076;2023-05-23T04:56:23;9.40;;;7.82;;
15112;SDS011;7657;50.140;7.076;2023-05-23T04:58:51;8.18;;;7.05;;
15112;SDS011;7657;50.140;7.076;2023-05-23T05:01:18;7.00;;;5.40;;
15112;SDS011;7657;50.140;7.076;2023-05-23T05:03:45;7.65;;;5.40;;
15112;SDS011;7657;50.140;7.076;2023-05-23T05:06:12;5.38;;;4.22;;
15112;SDS011;7657;50.140;7.076;2023-05-23T05:08:40;5.97;;;4.78;;
15112;SDS011;7657;50.140;7.076;2023-05-23T05:11:07;5.15;;;4.50;;
15112;SDS011;7657;50.140;7.076;2023-05-23T05:13:35;5.60;;;4.82;;
15112;SDS011;7657;50.140;7.076;2023-05-23T05:16:02;5.25;;;4.70;;
15112;SDS011;7657;50.140;7.076;2023-05-23T05:18:29;7.07;;;5.00;;
15112;SDS011;7657;50.140;7.076;2023-05-23T05:20:56;6.70;;;5.35;;
15112;SDS011;7657;50.140;7.076;2023-05-23T05:23:24;6.85;;;4.82;;
15112;SDS011;7657;50.140;7.076;2023-05-23T05:25:52;5.88;;;5.20;;
15112;SDS011;7657;50.140;7.076;2023-05-23T05:28:20;6.40;;;5.20;;
15112;SDS011;7657;50.140;7.076;2023-05-23T05:30:48;5.95;;;5.07;;
15112;SDS011;7657;50.140;7.076;2023-05-23T05:33:18;5.95;;;5.10;;
15112;SDS011;7657;50.140;7.076;2023-05-23T05:35:47;5.53;;;4.60;;
15112;SDS011;7657;50.140;7.076;2023-05-23T05:38:14;7.85;;;4.85;;
15112;SDS011;7657;50.140;7.076;2023-05-23T05:40:41;4.72;;;4.28;;
15112;SDS011;7657;50.140;7.076;2023-05-23T05:43:08;4.90;;;4.35;;
15112;SDS011;7657;50.140;7.076;2023-05-23T05:45:35;5.22;;;4.32;;
15112;SDS011;7657;50.140;7.076;2023-05-23T05:48:03;8.20;;;4.75;;
15112;SDS011;7657;50.140;7.076;2023-05-23T05:50:30;6.57;;;4.13;;
15112;SDS011;7657;50.140;7.076;2023-05-23T05:52:57;4.20;;;3.80;;
15112;SDS011;7657;50.140;7.076;2023-05-23T05:55:24;4.93;;;4.05;;
15112;SDS011;7657;50.140;7.076;2023-05-23T05:57:50;3.72;;;3.30;;
15112;SDS011;7657;50.140;7.076;2023-05-23T06:00:18;4.25;;;3.20;;
15112;SDS011;7657;50.140;7.076;2023-05-23T06:02:46;3.17;;;2.90;;
15112;SDS011;7657;50.140;7.076;2023-05-23T06:05:16;2.95;;;2.30;;
15112;SDS011;7657;50.140;7.076;2023-05-23T06:07:43;4.35;;;2.92;;
15112;SDS011;7657;50.140;7.076;2023-05-23T06:10:13;4.22;;;3.10;;
15112;SDS011;7657;50.140;7.076;2023-05-23T06:12:40;3.53;;;3.20;;
15112;SDS011;7657;50.140;7.076;2023-05-23T06:15:07;6.80;;;4.25;;
15112;SDS011;7657;50.140;7.076;2023-05-23T06:17:34;3.70;;;3.05;;
15112;SDS011;7657;50.140;7.076;2023-05-23T06:20:01;3.60;;;3.30;;
15112;SDS011;7657;50.140;7.076;2023-05-23T06:22:30;5.82;;;4.22;;
15112;SDS011;7657;50.140;7.076;2023-05-23T06:24:57;4.30;;;3.88;;
15112;SDS011;7657;50.140;7.076;2023-05-23T06:27:24;4.65;;;4.07;;
15112;SDS011;7657;50.140;7.076;2023-05-23T06:29:51;6.95;;;5.38;;
15112;SDS011;7657;50.140;7.076;2023-05-23T06:32:18;4.90;;;4.35;;
15112;SDS011;7657;50.140;7.076;2023-05-23T06:34:45;5.78;;;4.47;;
15112;SDS011;7657;50.140;7.076;2023-05-23T06:37:12;4.93;;;4.50;;
15112;SDS011;7657;50.140;7.076;2023-05-23T06:39:40;5.45;;;4.13;;
15112;SDS011;7657;50.140;7.076;2023-05-23T06:42:07;5.20;;;4.47;;
15112;SDS011;7657;50.140;7.076;2023-05-23T06:44:34;5.55;;;4.65;;
15112;SDS011;7657;50.140;7.076;2023-05-23T06:47:01;7.72;;;5.32;;
15112;SDS011;7657;50.140;7.076;2023-05-23T06:49:28;4.72;;;4.32;;
15112;SDS011;7657;50.140;7.076;2023-05-23T06:51:55;6.43;;;5.18;;
15112;SDS011;7657;50.140;7.076;2023-05-23T06:54:22;7.15;;;4.95;;
15112;SDS011;7657;50.140;7.076;2023-05-23T06:56:50;6.07;;;5.07;;
15112;SDS011;7657;50.140;7.076;2023-05-23T06:59:17;5.72;;;5.05;;
15112;SDS011;7657;50.140;7.076;2023-05-23T07:01:44;5.97;;;5.38;;
15112;SDS011;7657;50.140;7.076;2023-05-23T07:04:11;6.80;;;5.63;;
15112;SDS011;7657;50.140;7.076;2023-05-23T07:06:38;6.38;;;5.30;;
15112;SDS011;7657;50.140;7.076;2023-05-23T07:09:05;7.72;;;5.40;;
15112;SDS011;7657;50.140;7.076;2023-05-23T07:11:32;8.98;;;6.18;;
15112;SDS011;7657;50.140;7.076;2023-05-23T07:14:01;6.65;;;5.78;;
15112;SDS011;7657;50.140;7.076;2023-05-23T07:16:27;7.40;;;6.20;;
15112;SDS011;7657;50.140;7.076;2023-05-23T07:18:54;7.40;;;6.47;;
15112;SDS011;7657;50.140;7.076;2023-05-23T07:21:21;7.90;;;7.10;;
15112;SDS011;7657;50.140;7.076;2023-05-23T07:23:48;10.48;;;7.10;;
15112;SDS011;7657;50.140;7.076;2023-05-23T07:26:15;9.35;;;7.72;;
15112;SDS011;7657;50.140;7.076;2023-05-23T07:28:42;9.38;;;7.60;;
15112;SDS011;7657;50.140;7.076;2023-05-23T07:31:10;7.88;;;7.07;;
15112;SDS011;7657;50.140;7.076;2023-05-23T07:33:38;9.45;;;7.07;;
15112;SDS011;7657;50.140;7.076;2023-05-23T07:36:05;9.80;;;8.02;;
15112;SDS011;7657;50.140;7.076;2023-05-23T07:38:32;8.15;;;7.35;;
15112;SDS011;7657;50.140;7.076;2023-05-23T07:40:59;9.40;;;7.68;;
15112;SDS011;7657;50.140;7.076;2023-05-23T07:43:26;9.10;;;7.85;;
15112;SDS011;7657;50.140;7.076;2023-05-23T07:45:52;8.70;;;7.20;;
15112;SDS011;7657;50.140;7.076;2023-05-23T07:48:21;8.70;;;7.47;;
15112;SDS011;7657;50.140;7.076;2023-05-23T07:50:48;9.27;;;7.57;;
15112;SDS011;7657;50.140;7.076;2023-05-23T07:53:19;8.27;;;6.93;;
15112;SDS011;7657;50.140;7.076;2023-05-23T07:55:47;8.52;;;7.03;;
15112;SDS011;7657;50.140;7.076;2023-05-23T07:58:14;9.07;;;6.75;;
15112;SDS011;7657;50.140;7.076;2023-05-23T08:00:41;9.80;;;7.60;;
15112;SDS011;7657;50.140;7.076;2023-05-23T08:03:08;9.13;;;7.20;;
15112;SDS011;7657;50.140;7.076;2023-05-23T08:05:37;12.50;;;8.23;;
15112;SDS011;7657;50.140;7.076;2023-05-23T08:08:04;14.95;;;11.10;;
15112;SDS011;7657;50.140;7.076;2023-05-23T08:10:31;13.93;;;11.48;;
15112;SDS011;7657;50.140;7.076;2023-05-23T08:12:58;10.43;;;8.70;;
15112;SDS011;7657;50.140;7.076;2023-05-23T08:15:30;11.05;;;7.88;;
15112;SDS011;7657;50.140;7.076;2023-05-23T08:17:57;10.02;;;7.50;;
15112;SDS011;7657;50.140;7.076;2023-05-23T08:20:24;10.13;;;7.68;;
15112;SDS011;7657;50.140;7.076;2023-05-23T08:22:56;10.40;;;8.55;;
15112;SDS011;7657;50.140;7.076;2023-05-23T08:25:24;10.10;;;8.40;;
15112;SDS011;7657;50.140;7.076;2023-05-23T08:27:54;9.27;;;7.32;;
15112;SDS011;7657;50.140;7.076;2023-05-23T08:30:22;12.43;;;7.88;;
15112;SDS011;7657;50.140;7.076;2023-05-23T08:32:49;11.45;;;7.80;;
15112;SDS011;7657;50.140;7.076;2023-05-23T08:35:17;10.68;;;8.73;;
15112;SDS011;7657;50.140;7.076;2023-05-23T08:37:44;12.52;;;9.18;;
15112;SDS011;7657;50.140;7.076;2023-05-23T08:40:14;13.30;;;9.85;;
15112;SDS011;7657;50.140;7.076;2023-05-23T08:42:45;12.98;;;10.38;;
15112;SDS011;7657;50.140;7.076;2023-05-23T08:45:12;10.77;;;8.60;;
15112;SDS011;7657;50.140;7.076;2023-05-23T08:47:41;11.23;;;8.48;;
15112;SDS011;7657;50.140;7.076;2023-05-23T08:50:10;11.57;;;7.85;;
15112;SDS011;7657;50.140;7.076;2023-05-23T08:52:40;9.45;;;7.43;;
15112;SDS011;7657;50.140;7.076;2023-05-23T08:55:10;11.30;;;10.10;;
15112;SDS011;7657;50.140;7.076;2023-05-23T08:57:39;12.20;;;9.32;;
15112;SDS011;7657;50.140;7.076;2023-05-23T09:00:08;10.55;;;8.30;;
15112;SDS011;7657;50.140;7.076;2023-05-23T09:02:38;9.32;;;7.78;;
15112;SDS011;7657;50.140;7.076;2023-05-23T09:05:06;10.00;;;7.95;;
15112;SDS011;7657;50.140;7.076;2023-05-23T09:07:34;11.27;;;7.78;;
15112;SDS011;7657;50.140;7.076;2023-05-23T09:10:02;10.32;;;8.95;;
15112;SDS011;7657;50.140;7.076;2023-05-23T09:12:31;10.05;;;8.20;;
15112;SDS011;7657;50.140;7.076;2023-05-23T09:14:59;10.93;;;9.38;;
15112;SDS011;7657;50.140;7.076;2023-05-23T09:17:26;9.98;;;8.90;;
15112;SDS011;7657;50.140;7.076;2023-05-23T09:19:53;10.10;;;8.63;;
15112;SDS011;7657;50.140;7.076;2023-05-23T09:22:22;11.85;;;10.18;;
15112;SDS011;7657;50.140;7.076;2023-05-23T09:24:50;27.70;;;22.30;;
15112;SDS011;7657;50.140;7.076;2023-05-23T09:27:17;22.58;;;19.58;;
15112;SDS011;7657;50.140;7.076;2023-05-23T09:29:44;20.40;;;17.27;;
15112;SDS011;7657;50.140;7.076;2023-05-23T09:32:14;9.40;;;8.10;;
15112;SDS011;7657;50.140;7.076;2023-05-23T09:34:42;10.48;;;9.02;;
15112;SDS011;7657;50.140;7.076;2023-05-23T09:37:20;9.77;;;8.77;;
15112;SDS011;7657;50.140;7.076;2023-05-23T09:39:48;12.40;;;10.40;;
15112;SDS011;7657;50.140;7.076;2023-05-23T09:42:19;9.30;;;8.15;;
15112;SDS011;7657;50.140;7.076;2023-05-23T09:44:47;8.15;;;7.35;;
15112;SDS011;7657;50.140;7.076;2023-05-23T09:47:16;11.45;;;8.00;;
15112;SDS011;7657;50.140;7.076;2023-05-23T09:49:44;12.23;;;8.05;;
15112;SDS011;7657;50.140;7.076;2023-05-23T09:52:11;7.80;;;6.97;;
15112;SDS011;7657;50.140;7.076;2023-05-23T09:54:38;7.85;;;7.15;;
15112;SDS011;7657;50.140;7.076;2023-05-23T09:57:06;6.88;;;6.18;;
15112;SDS011;7657;50.140;7.076;2023-05-23T09:59:37;8.82;;;7.18;;
15112;SDS011;7657;50.140;7.076;2023-05-23T10:02:06;7.95;;;6.53;;
15112;SDS011;7657;50.140;7.076;2023-05-23T10:04:37;8.30;;;7.43;;
15112;SDS011;7657;50.140;7.076;2023-05-23T10:07:06;8.50;;;6.57;;
15112;SDS011;7657;50.140;7.076;2023-05-23T10:09:40;7.70;;;6.95;;
15112;SDS011;7657;50.140;7.076;2023-05-23T10:15:04;8.80;;;7.43;;
15112;SDS011;7657;50.140;7.076;2023-05-23T10:17:35;8.15;;;7.03;;
15112;SDS011;7657;50.140;7.076;2023-05-23T10:20:19;9.95;;;7.80;;
15112;SDS011;7657;50.140;7.076;2023-05-23T10:22:50;8.32;;;7.35;;
15112;SDS011;7657;50.140;7.076;2023-05-23T10:25:18;7.43;;;6.57;;
15112;SDS011;7657;50.140;7.076;2023-05-23T10:27:45;10.38;;;7.78;;
15112;SDS011;7657;50.140;7.076;2023-05-23T10:30:14;9.68;;;7.55;;
15112;SDS011;7657;50.140;7.076;2023-05-23T10:32:41;12.15;;;10.55;;
15112;SDS011;7657;50.140;7.076;2023-05-23T10:35:11;17.98;;;16.15;;
15112;SDS011;7657;50.140;7.076;2023-05-23T10:37:47;10.95;;;9.85;;
15112;SDS011;7657;50.140;7.076;2023-05-23T10:40:22;15.80;;;12.35;;
15112;SDS011;7657;50.140;7.076;2023-05-23T10:42:59;11.70;;;9.90;;
15112;SDS011;7657;50.140;7.076;2023-05-23T10:45:30;11.35;;;9.45;;
15112;SDS011;7657;50.140;7.076;2023-05-23T10:48:15;10.38;;;9.38;;
15112;SDS011;7657;50.140;7.076;2023-05-23T10:51:00;15.60;;;12.75;;
15112;SDS011;7657;50.140;7.076;2023-05-23T10:53:30;10.63;;;9.07;;
15112;SDS011;7657;50.140;7.076;2023-05-23T10:55:59;8.73;;;7.10;;
15112;SDS011;7657;50.140;7.076;2023-05-23T10:58:28;9.52;;;6.72;;
15112;SDS011;7657;50.140;7.076;2023-05-23T11:00:56;8.13;;;7.28;;
15112;SDS011;7657;50.140;7.076;2023-05-23T11:03:32;7.57;;;6.78;;
15112;SDS011;7657;50.140;7.076;2023-05-23T11:06:00;7.47;;;6.70;;
15112;SDS011;7657;50.140;7.076;2023-05-23T11:08:36;7.35;;;6.45;;
15112;SDS011;7657;50.140;7.076;2023-05-23T11:11:06;6.78;;;5.93;;
15112;SDS011;7657;50.140;7.076;2023-05-23T11:16:23;5.70;;;5.10;;
15112;SDS011;7657;50.140;7.076;2023-05-23T11:18:51;6.82;;;5.22;;
15112;SDS011;7657;50.140;7.076;2023-05-23T11:21:18;7.10;;;5.72;;
15112;SDS011;7657;50.140;7.076;2023-05-23T11:23:47;5.82;;;5.07;;
15112;SDS011;7657;50.140;7.076;2023-05-23T11:26:29;6.80;;;5.28;;
15112;SDS011;7657;50.140;7.076;2023-05-23T11:28:57;6.13;;;4.85;;
15112;SDS011;7657;50.140;7.076;2023-05-23T11:31:24;5.97;;;4.85;;
15112;SDS011;7657;50.140;7.076;2023-05-23T11:33:52;5.65;;;5.03;;
15112;SDS011;7657;50.140;7.076;2023-05-23T11:36:19;5.85;;;5.20;;
15112;SDS011;7657;50.140;7.076;2023-05-23T11:38:48;7.28;;;5.63;;
15112;SDS011;7657;50.140;7.076;2023-05-23T11:41:16;8.13;;;5.90;;
15112;SDS011;7657;50.140;7.076;2023-05-23T11:43:49;6.60;;;5.60;;
15112;SDS011;7657;50.140;7.076;2023-05-23T11:46:16;11.40;;;6.68;;
15112;SDS011;7657;50.140;7.076;2023-05-23T11:48:44;8.68;;;6.50;;
15112;SDS011;7657;50.140;7.076;2023-05-23T11:51:11;9.15;;;6.88;;
15112;SDS011;7657;50.140;7.076;2023-05-23T11:53:38;9.05;;;6.50;;
15112;SDS011;7657;50.140;7.076;2023-05-23T11:56:06;7.97;;;6.30;;
15112;SDS011;7657;50.140;7.076;2023-05-23T11:58:34;8.77;;;5.78;;
15112;SDS011;7657;50.140;7.076;2023-05-23T12:01:02;6.05;;;5.13;;
15112;SDS011;7657;50.140;7.076;2023-05-23T12:03:30;6.47;;;4.65;;
15112;SDS011;7657;50.140;7.076;2023-05-23T12:05:57;4.10;;;3.65;;
15112;SDS011;7657;50.140;7.076;2023-05-23T12:08:25;2.78;;;2.58;;
15112;SDS011;7657;50.140;7.076;2023-05-23T12:10:52;2.50;;;2.30;;
15112;SDS011;7657;50.140;7.076;2023-05-23T12:13:24;3.42;;;1.80;;
15112;SDS011;7657;50.140;7.076;2023-05-23T12:15:54;1.80;;;1.70;;
15112;SDS011;7657;50.140;7.076;2023-05-23T12:18:22;3.47;;;2.20;;
15112;SDS011;7657;50.140;7.076;2023-05-23T12:20:53;4.07;;;3.53;;
15112;SDS011;7657;50.140;7.076;2023-05-23T12:23:20;7.05;;;5.80;;
15112;SDS011;7657;50.140;7.076;2023-05-23T12:25:51;6.95;;;5.70;;
15112;SDS011;7657;50.140;7.076;2023-05-23T12:28:19;9.25;;;7.03;;
15112;SDS011;7657;50.140;7.076;2023-05-23T12:30:48;10.85;;;6.88;;
15112;SDS011;7657;50.140;7.076;2023-05-23T12:33:17;12.25;;;7.40;;
15112;SDS011;7657;50.140;7.076;2023-05-23T12:35:45;9.23;;;6.90;;
15112;SDS011;7657;50.140;7.076;2023-05-23T12:38:13;9.38;;;7.20;;
15112;SDS011;7657;50.140;7.076;2023-05-23T12:40:41;10.25;;;7.30;;
15112;SDS011;7657;50.140;7.076;2023-05-23T12:43:08;11.45;;;8.60;;
15112;SDS011;7657;50.140;7.076;2023-05-23T12:45:35;11.48;;;8.77;;
15112;SDS011;7657;50.140;7.076;2023-05-23T12:48:04;10.63;;;8.40;;
15112;SDS011;7657;50.140;7.076;2023-05-23T12:50:32;11.63;;;7.93;;
15112;SDS011;7657;50.140;7.076;2023-05-23T12:52:59;10.32;;;8.30;;
15112;SDS011;7657;50.140;7.076;2023-05-23T12:55:26;11.40;;;7.82;;
15112;SDS011;7657;50.140;7.076;2023-05-23T12:57:53;11.52;;;8.20;;
15112;SDS011;7657;50.140;7.076;2023-05-23T13:00:20;11.50;;;7.85;;
15112;SDS011;7657;50.140;7.076;2023-05-23T13:02:48;10.13;;;7.65;;
15112;SDS011;7657;50.140;7.076;2023-05-23T13:05:17;19.10;;;15.30;;
15112;SDS011;7657;50.140;7.076;2023-05-23T13:07:45;12.93;;;8.93;;
15112;SDS011;7657;50.140;7.076;2023-05-23T13:10:12;13.65;;;7.40;;
15112;SDS011;7657;50.140;7.076;2023-05-23T13:12:38;9.10;;;6.20;;
15112;SDS011;7657;50.140;7.076;2023-05-23T13:15:07;8.88;;;6.40;;
15112;SDS011;7657;50.140;7.076;2023-05-23T13:17:35;7.80;;;5.95;;
15112;SDS011;7657;50.140;7.076;2023-05-23T13:20:02;9.27;;;6.35;;
15112;SDS011;7657;50.140;7.076;2023-05-23T13:22:31;8.52;;;6.45;;
15112;SDS011;7657;50.140;7.076;2023-05-23T13:24:58;10.93;;;7.28;;
15112;SDS011;7657;50.140;7.076;2023-05-23T13:27:25;10.63;;;7.90;;
15112;SDS011;7657;50.140;7.076;2023-05-23T13:29:52;11.88;;;7.65;;
15112;SDS011;7657;50.140;7.076;2023-05-23T13:32:19;11.75;;;8.15;;
15112;SDS011;7657;50.140;7.076;2023-05-23T13:34:46;9.82;;;7.65;;
15112;SDS011;7657;50.140;7.076;2023-05-23T13:37:13;14.18;;;7.53;;
15112;SDS011;7657;50.140;7.076;2023-05-23T13:39:41;12.85;;;7.50;;
15112;SDS011;7657;50.140;7.076;2023-05-23T13:42:08;10.98;;;7.07;;
15112;SDS011;7657;50.140;7.076;2023-05-23T13:44:35;9.27;;;7.03;;
15112;SDS011;7657;50.140;7.076;2023-05-23T13:47:08;8.98;;;6.85;;
15112;SDS011;7657;50.140;7.076;2023-05-23T13:49:36;8.98;;;6.28;;
15112;SDS011;7657;50.140;7.076;2023-05-23T13:52:03;9.90;;;6.18;;
15112;SDS011;7657;50.140;7.076;2023-05-23T13:54:31;8.18;;;5.22;;
15112;SDS011;7657;50.140;7.076;2023-05-23T13:56:59;8.88;;;5.32;;
15112;SDS011;7657;50.140;7.076;2023-05-23T13:59:26;8.43;;;4.85;;
15112;SDS011;7657;50.140;7.076;2023-05-23T14:01:53;9.52;;;5.10;;
15112;SDS011;7657;50.140;7.076;2023-05-23T14:04:20;10.93;;;5.30;;
15112;SDS011;7657;50.140;7.076;2023-05-23T14:06:47;8.13;;;4.43;;
15112;SDS011;7657;50.140;7.076;2023-05-23T14:09:14;6.22;;;4.22;;
15112;SDS011;7657;50.140;7.076;2023-05-23T14:11:42;7.70;;;3.95;;
15112;SDS011;7657;50.140;7.076;2023-05-23T14:14:10;7.88;;;4.18;;
15112;SDS011;7657;50.140;7.076;2023-05-23T14:16:37;7.50;;;3.85;;
15112;SDS011;7657;50.140;7.076;2023-05-23T14:19:04;7.25;;;4.00;;
15112;SDS011;7657;50.140;7.076;2023-05-23T14:21:32;6.20;;;4.28;;
15112;SDS011;7657;50.140;7.076;2023-05-23T14:23:58;4.85;;;3.95;;
15112;SDS011;7657;50.140;7.076;2023-05-23T14:26:25;4.70;;;4.18;;
15112;SDS011;7657;50.140;7.076;2023-05-23T14:28:52;6.28;;;4.28;;
15112;SDS011;7657;50.140;7.076;2023-05-23T14:31:21;6.05;;;4.97;;
15112;SDS011;7657;50.140;7.076;2023-05-23T14:33:48;6.60;;;4.30;;
15112;SDS011;7657;50.140;7.076;2023-05-23T14:36:15;8.13;;;4.82;;
15112;SDS011;7657;50.140;7.076;2023-05-23T14:38:41;4.82;;;4.32;;
15112;SDS011;7657;50.140;7.076;2023-05-23T14:41:09;5.45;;;4.15;;
15112;SDS011;7657;50.140;7.076;2023-05-23T14:43:36;8.20;;;5.40;;
15112;SDS011;7657;50.140;7.076;2023-05-23T14:46:03;8.00;;;5.30;;
15112;SDS011;7657;50.140;7.076;2023-05-23T14:48:33;8.30;;;5.38;;
15112;SDS011;7657;50.140;7.076;2023-05-23T14:51:00;6.20;;;4.95;;
15112;SDS011;7657;50.140;7.076;2023-05-23T14:53:26;9.55;;;5.43;;
15112;SDS011;7657;50.140;7.076;2023-05-23T14:55:54;8.70;;;4.95;;
15112;SDS011;7657;50.140;7.076;2023-05-23T14:58:21;9.38;;;5.20;;
15112;SDS011;7657;50.140;7.076;2023-05-23T15:00:49;10.98;;;4.80;;
15112;SDS011;7657;50.140;7.076;2023-05-23T15:03:16;8.38;;;4.78;;